sensor_id;sensor_type;location;lat;lon;timestamp;P1;durP1;ratioP1;P2;durP2;ratioP2
26038;SDS011;13815;52.374;4.882;2023-05-10T00:01:19;0.00;;;0.00;;
26038;SDS011;13815;52.374;4.882;2023-05-10T00:03:45;0.00;;;0.00;;
26038;SDS011;13815;52.374;4.882;2023-05-10T00:06:10;0.00;;;0.00;;
26038;SDS011;13815;52.374;4.882;2023-05-10T00:08:35;0.00;;;0.00;;
26038;SDS011;13815;52.374;4.882;2023-05-10T00:11:01;0.00;;;0.00;;
26038;SDS011;13815;52.374;4.882;2023-05-10T00:13:26;0.00;;;0.00;;
26038;SDS011;13815;52.374;4.882;2023-05-10T00:15:52;5.57;;;0.45;;
26038;SDS011;13815;52.374;4.882;2023-05-10T00:18:17;0.00;;;0.00;;
26038;SDS011;13815;52.374;4.882;2023-05-10T00:20:42;0.00;;;0.00;;
26038;SDS011;13815;52.374;4.882;2023-05-10T00:23:08;0.00;;;0.00;;
26038;SDS011;13815;52.374;4.882;2023-05-10T00:25:33;1.98;;;0.22;;
26038;SDS011;13815;52.374;4.882;2023-05-10T00:27:58;0.00;;;0.00;;
26038;SDS011;13815;52.374;4.882;2023-05-10T00:30:26;0.00;;;0.00;;
26038;SDS011;13815;52.374;4.882;2023-05-10T00:32:51;0.00;;;0.00;;
26038;SDS011;13815;52.374;4.882;2023-05-10T00:35:16;0.00;;;0.00;;
26038;SDS011;13815;52.374;4.882;2023-05-10T00:37:42;0.00;;;0.00;;
26038;SDS011;13815;52.374;4.882;2023-05-10T00:40:07;0.00;;;0.00;;
26038;SDS011;13815;52.374;4.882;2023-05-10T00:42:33;0.00;;;0.00;;
26038;SDS011;13815;52.374;4.882;2023-05-10T00:44:58;0.00;;;0.00;;
26038;SDS011;13815;52.374;4.882;2023-05-10T00:47:23;0.00;;;0.00;;
26038;SDS011;13815;52.374;4.882;2023-05-10T00:49:49;0.00;;;0.00;;
26038;SDS011;13815;52.374;4.882;2023-05-10T00:52:14;0.00;;;0.00;;
26038;SDS011;13815;52.374;4.882;2023-05-10T00:54:40;0.00;;;0.00;;
26038;SDS011;13815;52.374;4.882;2023-05-10T00:57:06;0.00;;;0.00;;
26038;SDS011;13815;52.374;4.882;2023-05-10T00:59:31;0.00;;;0.00;;
26038;SDS011;13815;52.374;4.882;2023-05-10T01:01:57;5.28;;;0.55;;
26038;SDS011;13815;52.374;4.882;2023-05-10T01:04:23;0.00;;;0.00;;
26038;SDS011;13815;52.374;4.882;2023-05-10T01:06:50;0.00;;;0.00;;
26038;SDS011;13815;52.374;4.882;2023-05-10T01:09:16;0.00;;;0.00;;
26038;SDS011;13815;52.374;4.882;2023-05-10T01:11:43;0.00;;;0.00;;
26038;SDS011;13815;52.374;4.882;2023-05-10T01:14:08;0.00;;;0.00;;
26038;SDS011;13815;52.374;4.882;2023-05-10T01:16:36;0.08;;;0.00;;
26038;SDS011;13815;52.374;4.882;2023-05-10T01:19:04;0.00;;;0.00;;
26038;SDS011;13815;52.374;4.882;2023-05-10T01:21:38;0.00;;;0.00;;
26038;SDS011;13815;52.374;4.882;2023-05-10T01:24:14;0.00;;;0.00;;
26038;SDS011;13815;52.374;4.882;2023-05-10T01:27:37;3.30;;;0.20;;
26038;SDS011;13815;52.374;4.882;2023-05-10T01:33:15;0.00;;;0.00;;
26038;SDS011;13815;52.374;4.882;2023-05-10T01:35:51;0.00;;;0.00;;
26038;SDS011;13815;52.374;4.882;2023-05-10T01:38:22;2.28;;;0.20;;
26038;SDS011;13815;52.374;4.882;2023-05-10T01:43:37;0.00;;;0.00;;
26038;SDS011;13815;52.374;4.882;2023-05-10T01:46:09;0.00;;;0.00;;
26038;SDS011;13815;52.374;4.882;2023-05-10T01:48:40;0.00;;;0.00;;
26038;SDS011;13815;52.374;4.882;2023-05-10T01:51:11;0.30;;;0.08;;
26038;SDS011;13815;52.374;4.882;2023-05-10T01:53:39;0.00;;;0.00;;
26038;SDS011;13815;52.374;4.882;2023-05-10T01:56:05;0.00;;;0.00;;
26038;SDS011;13815;52.374;4.882;2023-05-10T01:58:32;0.00;;;0.00;;
26038;SDS011;13815;52.374;4.882;2023-05-10T02:00:59;0.00;;;0.00;;
26038;SDS011;13815;52.374;4.882;2023-05-10T02:03:26;0.00;;;0.00;;
26038;SDS011;13815;52.374;4.882;2023-05-10T02:05:53;0.00;;;0.00;;
26038;SDS011;13815;52.374;4.882;2023-05-10T02:08:20;0.00;;;0.00;;
26038;SDS011;13815;52.374;4.882;2023-05-10T02:10:46;1.00;;;0.10;;
26038;SDS011;13815;52.374;4.882;2023-05-10T02:13:12;0.00;;;0.00;;
26038;SDS011;13815;52.374;4.882;2023-05-10T02:15:38;2.47;;;0.15;;
26038;SDS011;13815;52.374;4.882;2023-05-10T02:18:04;0.00;;;0.00;;
26038;SDS011;13815;52.374;4.882;2023-05-10T02:20:31;0.00;;;0.00;;
26038;SDS011;13815;52.374;4.882;2023-05-10T02:22:57;0.00;;;0.00;;
26038;SDS011;13815;52.374;4.882;2023-05-10T02:25:23;0.00;;;0.00;;
26038;SDS011;13815;52.374;4.882;2023-05-10T02:27:48;0.00;;;0.00;;
26038;SDS011;13815;52.374;4.882;2023-05-10T02:30:14;0.00;;;0.00;;
26038;SDS011;13815;52.374;4.882;2023-05-10T02:32:39;0.00;;;0.00;;
26038;SDS011;13815;52.374;4.882;2023-05-10T02:35:06;3.03;;;0.20;;
26038;SDS011;13815;52.374;4.882;2023-05-10T02:37:32;0.00;;;0.00;;
26038;SDS011;13815;52.374;4.882;2023-05-10T02:39:58;0.00;;;0.00;;
26038;SDS011;13815;52.374;4.882;2023-05-10T02:42:27;0.00;;;0.00;;
26038;SDS011;13815;52.374;4.882;2023-05-10T02:44:53;0.00;;;0.00;;
26038;SDS011;13815;52.374;4.882;2023-05-10T02:47:21;0.00;;;0.00;;
26038;SDS011;13815;52.374;4.882;2023-05-10T02:49:46;0.00;;;0.00;;
26038;SDS011;13815;52.374;4.882;2023-05-10T02:52:12;0.00;;;0.00;;
26038;SDS011;13815;52.374;4.882;2023-05-10T02:54:43;0.00;;;0.00;;
26038;SDS011;13815;52.374;4.882;2023-05-10T02:57:10;3.42;;;0.22;;
26038;SDS011;13815;52.374;4.882;2023-05-10T02:59:39;0.00;;;0.00;;
26038;SDS011;13815;52.374;4.882;2023-05-10T03:02:05;0.00;;;0.00;;
26038;SDS011;13815;52.374;4.882;2023-05-10T03:04:30;0.00;;;0.00;;
26038;SDS011;13815;52.374;4.882;2023-05-10T03:06:55;3.95;;;0.38;;
26038;SDS011;13815;52.374;4.882;2023-05-10T03:09:21;0.10;;;0.10;;
26038;SDS011;13815;52.374;4.882;2023-05-10T03:17:10;0.08;;;0.08;;
26038;SDS011;13815;52.374;4.882;2023-05-10T03:19:43;0.10;;;0.10;;
26038;SDS011;13815;52.374;4.882;2023-05-10T03:22:13;7.32;;;0.85;;
26038;SDS011;13815;52.374;4.882;2023-05-10T03:24:46;0.30;;;0.30;;
26038;SDS011;13815;52.374;4.882;2023-05-10T03:27:12;0.17;;;0.17;;
26038;SDS011;13815;52.374;4.882;2023-05-10T03:29:39;0.20;;;0.20;;
26038;SDS011;13815;52.374;4.882;2023-05-10T03:32:04;0.10;;;0.10;;
26038;SDS011;13815;52.374;4.882;2023-05-10T03:34:32;0.20;;;0.20;;
26038;SDS011;13815;52.374;4.882;2023-05-10T03:36:57;0.10;;;0.10;;
26038;SDS011;13815;52.374;4.882;2023-05-10T03:39:23;0.10;;;0.10;;
26038;SDS011;13815;52.374;4.882;2023-05-10T03:41:49;0.22;;;0.22;;
26038;SDS011;13815;52.374;4.882;2023-05-10T03:44:15;1.63;;;0.43;;
26038;SDS011;13815;52.374;4.882;2023-05-10T03:46:40;0.10;;;0.10;;
26038;SDS011;13815;52.374;4.882;2023-05-10T03:49:05;0.90;;;0.17;;
26038;SDS011;13815;52.374;4.882;2023-05-10T03:51:31;0.30;;;0.30;;
26038;SDS011;13815;52.374;4.882;2023-05-10T03:53:56;0.28;;;0.28;;
26038;SDS011;13815;52.374;4.882;2023-05-10T03:56:22;0.30;;;0.30;;
26038;SDS011;13815;52.374;4.882;2023-05-10T03:58:47;1.00;;;1.00;;
26038;SDS011;13815;52.374;4.882;2023-05-10T04:01:12;2.78;;;0.85;;
26038;SDS011;13815;52.374;4.882;2023-05-10T04:03:38;0.30;;;0.30;;
26038;SDS011;13815;52.374;4.882;2023-05-10T04:06:03;0.40;;;0.40;;
26038;SDS011;13815;52.374;4.882;2023-05-10T04:08:29;0.13;;;0.13;;
26038;SDS011;13815;52.374;4.882;2023-05-10T04:11:04;0.40;;;0.40;;
26038;SDS011;13815;52.374;4.882;2023-05-10T04:13:30;4.68;;;0.95;;
26038;SDS011;13815;52.374;4.882;2023-05-10T04:15:55;0.50;;;0.50;;
26038;SDS011;13815;52.374;4.882;2023-05-10T04:18:21;4.70;;;0.88;;
26038;SDS011;13815;52.374;4.882;2023-05-10T04:20:46;0.60;;;0.60;;
26038;SDS011;13815;52.374;4.882;2023-05-10T04:23:11;0.40;;;0.40;;
26038;SDS011;13815;52.374;4.882;2023-05-10T04:25:37;1.42;;;0.50;;
26038;SDS011;13815;52.374;4.882;2023-05-10T04:28:02;0.80;;;0.80;;
26038;SDS011;13815;52.374;4.882;2023-05-10T04:30:28;0.70;;;0.70;;
26038;SDS011;13815;52.374;4.882;2023-05-10T04:32:54;0.50;;;0.50;;
26038;SDS011;13815;52.374;4.882;2023-05-10T04:35:19;0.65;;;0.65;;
26038;SDS011;13815;52.374;4.882;2023-05-10T04:37:45;0.32;;;0.32;;
26038;SDS011;13815;52.374;4.882;2023-05-10T04:40:10;0.32;;;0.32;;
26038;SDS011;13815;52.374;4.882;2023-05-10T04:42:36;0.40;;;0.40;;
26038;SDS011;13815;52.374;4.882;2023-05-10T04:45:01;2.85;;;0.70;;
26038;SDS011;13815;52.374;4.882;2023-05-10T04:47:26;0.60;;;0.60;;
26038;SDS011;13815;52.374;4.882;2023-05-10T04:49:52;0.73;;;0.73;;
26038;SDS011;13815;52.374;4.882;2023-05-10T04:52:17;0.73;;;0.73;;
26038;SDS011;13815;52.374;4.882;2023-05-10T04:54:42;1.63;;;0.50;;
26038;SDS011;13815;52.374;4.882;2023-05-10T04:57:08;0.57;;;0.57;;
26038;SDS011;13815;52.374;4.882;2023-05-10T04:59:35;3.05;;;2.83;;
26038;SDS011;13815;52.374;4.882;2023-05-10T05:02:01;1.58;;;1.48;;
26038;SDS011;13815;52.374;4.882;2023-05-10T05:04:26;0.63;;;0.63;;
26038;SDS011;13815;52.374;4.882;2023-05-10T05:06:51;1.10;;;1.00;;
26038;SDS011;13815;52.374;4.882;2023-05-10T05:09:17;0.45;;;0.43;;
26038;SDS011;13815;52.374;4.882;2023-05-10T05:11:42;0.80;;;0.77;;
26038;SDS011;13815;52.374;4.882;2023-05-10T05:14:10;4.05;;;1.40;;
26038;SDS011;13815;52.374;4.882;2023-05-10T05:16:35;0.73;;;0.68;;
26038;SDS011;13815;52.374;4.882;2023-05-10T05:19:04;0.35;;;0.30;;
26038;SDS011;13815;52.374;4.882;2023-05-10T05:21:30;0.70;;;0.63;;
26038;SDS011;13815;52.374;4.882;2023-05-10T05:23:57;0.93;;;0.82;;
26038;SDS011;13815;52.374;4.882;2023-05-10T05:26:22;2.40;;;0.75;;
26038;SDS011;13815;52.374;4.882;2023-05-10T05:28:47;0.40;;;0.30;;
26038;SDS011;13815;52.374;4.882;2023-05-10T05:31:13;0.50;;;0.50;;
26038;SDS011;13815;52.374;4.882;2023-05-10T05:33:39;0.57;;;0.50;;
26038;SDS011;13815;52.374;4.882;2023-05-10T05:36:07;0.50;;;0.40;;
26038;SDS011;13815;52.374;4.882;2023-05-10T05:38:33;1.05;;;0.90;;
26038;SDS011;13815;52.374;4.882;2023-05-10T05:40:58;0.82;;;0.68;;
26038;SDS011;13815;52.374;4.882;2023-05-10T05:43:23;1.45;;;1.27;;
26038;SDS011;13815;52.374;4.882;2023-05-10T05:45:49;1.02;;;0.90;;
26038;SDS011;13815;52.374;4.882;2023-05-10T05:48:14;0.55;;;0.40;;
26038;SDS011;13815;52.374;4.882;2023-05-10T05:50:40;0.50;;;0.35;;
26038;SDS011;13815;52.374;4.882;2023-05-10T05:53:05;0.50;;;0.50;;
26038;SDS011;13815;52.374;4.882;2023-05-10T05:55:30;1.08;;;1.00;;
26038;SDS011;13815;52.374;4.882;2023-05-10T05:57:56;0.63;;;0.63;;
26038;SDS011;13815;52.374;4.882;2023-05-10T06:00:22;1.15;;;0.73;;
26038;SDS011;13815;52.374;4.882;2023-05-10T06:02:47;6.57;;;1.23;;
26038;SDS011;13815;52.374;4.882;2023-05-10T06:05:13;1.48;;;1.38;;
26038;SDS011;13815;52.374;4.882;2023-05-10T06:07:39;0.55;;;0.55;;
26038;SDS011;13815;52.374;4.882;2023-05-10T06:10:07;0.80;;;0.80;;
26038;SDS011;13815;52.374;4.882;2023-05-10T06:12:32;0.40;;;0.40;;
26038;SDS011;13815;52.374;4.882;2023-05-10T06:15:00;0.60;;;0.60;;
26038;SDS011;13815;52.374;4.882;2023-05-10T06:17:26;0.80;;;0.73;;
26038;SDS011;13815;52.374;4.882;2023-05-10T06:19:52;0.38;;;0.30;;
26038;SDS011;13815;52.374;4.882;2023-05-10T06:22:17;0.45;;;0.43;;
26038;SDS011;13815;52.374;4.882;2023-05-10T06:24:43;0.65;;;0.65;;
26038;SDS011;13815;52.374;4.882;2023-05-10T06:27:08;1.02;;;0.93;;
26038;SDS011;13815;52.374;4.882;2023-05-10T06:29:33;1.20;;;1.10;;
26038;SDS011;13815;52.374;4.882;2023-05-10T06:31:59;0.60;;;0.50;;
26038;SDS011;13815;52.374;4.882;2023-05-10T06:34:24;1.20;;;1.00;;
26038;SDS011;13815;52.374;4.882;2023-05-10T06:36:50;0.88;;;0.70;;
26038;SDS011;13815;52.374;4.882;2023-05-10T06:39:15;1.33;;;0.75;;
26038;SDS011;13815;52.374;4.882;2023-05-10T06:41:41;1.58;;;1.00;;
26038;SDS011;13815;52.374;4.882;2023-05-10T06:44:06;1.00;;;0.65;;
26038;SDS011;13815;52.374;4.882;2023-05-10T06:46:32;0.95;;;0.68;;
26038;SDS011;13815;52.374;4.882;2023-05-10T06:48:57;10.77;;;1.45;;
26038;SDS011;13815;52.374;4.882;2023-05-10T06:51:22;5.40;;;1.73;;
26038;SDS011;13815;52.374;4.882;2023-05-10T06:53:48;1.00;;;0.80;;
26038;SDS011;13815;52.374;4.882;2023-05-10T06:56:13;1.95;;;1.70;;
26038;SDS011;13815;52.374;4.882;2023-05-10T06:58:39;4.75;;;0.82;;
26038;SDS011;13815;52.374;4.882;2023-05-10T07:01:04;2.28;;;0.98;;
26038;SDS011;13815;52.374;4.882;2023-05-10T07:03:30;1.30;;;1.20;;
26038;SDS011;13815;52.374;4.882;2023-05-10T07:06:02;0.45;;;0.40;;
26038;SDS011;13815;52.374;4.882;2023-05-10T07:08:32;9.68;;;1.67;;
26038;SDS011;13815;52.374;4.882;2023-05-10T07:11:01;2.03;;;1.08;;
26038;SDS011;13815;52.374;4.882;2023-05-10T07:13:30;5.07;;;0.98;;
26038;SDS011;13815;52.374;4.882;2023-05-10T07:15:56;0.60;;;0.60;;
26038;SDS011;13815;52.374;4.882;2023-05-10T07:18:22;1.20;;;1.10;;
26038;SDS011;13815;52.374;4.882;2023-05-10T07:20:47;0.95;;;0.93;;
26038;SDS011;13815;52.374;4.882;2023-05-10T07:23:13;4.45;;;1.35;;
26038;SDS011;13815;52.374;4.882;2023-05-10T07:25:38;0.90;;;0.90;;
26038;SDS011;13815;52.374;4.882;2023-05-10T07:28:04;1.17;;;1.08;;
26038;SDS011;13815;52.374;4.882;2023-05-10T07:30:29;5.93;;;1.10;;
26038;SDS011;13815;52.374;4.882;2023-05-10T07:32:54;6.80;;;1.33;;
26038;SDS011;13815;52.374;4.882;2023-05-10T07:35:20;0.50;;;0.50;;
26038;SDS011;13815;52.374;4.882;2023-05-10T07:37:45;0.50;;;0.50;;
26038;SDS011;13815;52.374;4.882;2023-05-10T07:40:10;1.08;;;0.98;;
26038;SDS011;13815;52.374;4.882;2023-05-10T07:42:36;0.45;;;0.45;;
26038;SDS011;13815;52.374;4.882;2023-05-10T07:45:01;0.80;;;0.80;;
26038;SDS011;13815;52.374;4.882;2023-05-10T07:47:27;0.80;;;0.80;;
26038;SDS011;13815;52.374;4.882;2023-05-10T07:49:52;3.72;;;0.93;;
26038;SDS011;13815;52.374;4.882;2023-05-10T07:52:18;0.65;;;0.65;;
26038;SDS011;13815;52.374;4.882;2023-05-10T07:54:43;0.52;;;0.52;;
26038;SDS011;13815;52.374;4.882;2023-05-10T07:57:09;0.40;;;0.40;;
26038;SDS011;13815;52.374;4.882;2023-05-10T07:59:34;0.60;;;0.60;;
26038;SDS011;13815;52.374;4.882;2023-05-10T08:02:00;0.50;;;0.50;;
26038;SDS011;13815;52.374;4.882;2023-05-10T08:04:25;0.32;;;0.32;;
26038;SDS011;13815;52.374;4.882;2023-05-10T08:06:51;0.40;;;0.40;;
26038;SDS011;13815;52.374;4.882;2023-05-10T08:09:16;0.17;;;0.17;;
26038;SDS011;13815;52.374;4.882;2023-05-10T08:11:42;0.52;;;0.52;;
26038;SDS011;13815;52.374;4.882;2023-05-10T08:14:08;0.20;;;0.20;;
26038;SDS011;13815;52.374;4.882;2023-05-10T08:16:33;0.13;;;0.13;;
26038;SDS011;13815;52.374;4.882;2023-05-10T08:18:59;0.50;;;0.50;;
26038;SDS011;13815;52.374;4.882;2023-05-10T08:21:24;0.20;;;0.20;;
26038;SDS011;13815;52.374;4.882;2023-05-10T08:23:51;0.40;;;0.40;;
26038;SDS011;13815;52.374;4.882;2023-05-10T08:26:16;0.50;;;0.50;;
26038;SDS011;13815;52.374;4.882;2023-05-10T08:28:41;0.20;;;0.20;;
26038;SDS011;13815;52.374;4.882;2023-05-10T08:31:07;0.50;;;0.50;;
26038;SDS011;13815;52.374;4.882;2023-05-10T08:33:32;0.45;;;0.45;;
26038;SDS011;13815;52.374;4.882;2023-05-10T08:35:57;0.55;;;0.55;;
26038;SDS011;13815;52.374;4.882;2023-05-10T08:38:23;0.40;;;0.30;;
26038;SDS011;13815;52.374;4.882;2023-05-10T08:40:48;7.32;;;1.73;;
26038;SDS011;13815;52.374;4.882;2023-05-10T08:43:15;10.63;;;2.53;;
26038;SDS011;13815;52.374;4.882;2023-05-10T08:45:41;12.70;;;2.30;;
26038;SDS011;13815;52.374;4.882;2023-05-10T08:48:08;5.30;;;1.42;;
26038;SDS011;13815;52.374;4.882;2023-05-10T08:50:41;4.55;;;1.80;;
26038;SDS011;13815;52.374;4.882;2023-05-10T08:53:11;3.83;;;1.65;;
26038;SDS011;13815;52.374;4.882;2023-05-10T08:55:39;3.15;;;1.55;;
26038;SDS011;13815;52.374;4.882;2023-05-10T08:58:06;1.10;;;0.82;;
26038;SDS011;13815;52.374;4.882;2023-05-10T09:00:33;2.20;;;1.25;;
26038;SDS011;13815;52.374;4.882;2023-05-10T09:02:58;8.48;;;2.30;;
26038;SDS011;13815;52.374;4.882;2023-05-10T09:05:24;6.07;;;2.65;;
26038;SDS011;13815;52.374;4.882;2023-05-10T09:07:50;3.90;;;1.75;;
26038;SDS011;13815;52.374;4.882;2023-05-10T09:10:15;5.18;;;2.08;;
26038;SDS011;13815;52.374;4.882;2023-05-10T09:12:41;7.28;;;2.78;;
26038;SDS011;13815;52.374;4.882;2023-05-10T09:15:06;13.90;;;2.80;;
26038;SDS011;13815;52.374;4.882;2023-05-10T09:17:32;5.13;;;2.05;;
26038;SDS011;13815;52.374;4.882;2023-05-10T09:19:59;2.65;;;1.48;;
26038;SDS011;13815;52.374;4.882;2023-05-10T09:22:24;8.50;;;2.55;;
26038;SDS011;13815;52.374;4.882;2023-05-10T09:25:11;3.50;;;1.80;;
26038;SDS011;13815;52.374;4.882;2023-05-10T09:27:37;3.80;;;2.35;;
26038;SDS011;13815;52.374;4.882;2023-05-10T09:30:03;2.88;;;2.28;;
26038;SDS011;13815;52.374;4.882;2023-05-10T09:35:25;2.55;;;2.03;;
26038;SDS011;13815;52.374;4.882;2023-05-10T09:37:56;2.47;;;2.15;;
26038;SDS011;13815;52.374;4.882;2023-05-10T09:40:27;4.07;;;2.88;;
26038;SDS011;13815;52.374;4.882;2023-05-10T09:45:23;2.60;;;2.40;;
26038;SDS011;13815;52.374;4.882;2023-05-10T09:47:50;1.88;;;1.77;;
26038;SDS011;13815;52.374;4.882;2023-05-10T09:50:15;3.45;;;3.17;;
26038;SDS011;13815;52.374;4.882;2023-05-10T09:52:57;1.92;;;1.83;;
26038;SDS011;13815;52.374;4.882;2023-05-10T09:55:45;2.45;;;2.25;;
26038;SDS011;13815;52.374;4.882;2023-05-10T09:58:10;1.30;;;1.20;;
26038;SDS011;13815;52.374;4.882;2023-05-10T10:00:38;1.80;;;1.70;;
26038;SDS011;13815;52.374;4.882;2023-05-10T10:03:05;3.30;;;2.53;;
26038;SDS011;13815;52.374;4.882;2023-05-10T10:08:00;2.47;;;2.22;;
26038;SDS011;13815;52.374;4.882;2023-05-10T10:10:27;2.65;;;2.45;;
26038;SDS011;13815;52.374;4.882;2023-05-10T10:12:53;1.90;;;1.80;;
26038;SDS011;13815;52.374;4.882;2023-05-10T10:15:22;2.75;;;2.65;;
26038;SDS011;13815;52.374;4.882;2023-05-10T10:17:48;6.65;;;3.28;;
26038;SDS011;13815;52.374;4.882;2023-05-10T10:20:16;2.50;;;2.40;;
26038;SDS011;13815;52.374;4.882;2023-05-10T10:22:41;2.42;;;2.33;;
26038;SDS011;13815;52.374;4.882;2023-05-10T10:25:09;3.33;;;3.22;;
26038;SDS011;13815;52.374;4.882;2023-05-10T10:27:47;3.00;;;2.90;;
26038;SDS011;13815;52.374;4.882;2023-05-10T10:35:49;2.50;;;2.40;;
26038;SDS011;13815;52.374;4.882;2023-05-10T10:38:14;2.70;;;2.50;;
26038;SDS011;13815;52.374;4.882;2023-05-10T10:46:59;2.40;;;2.30;;
26038;SDS011;13815;52.374;4.882;2023-05-10T10:49:25;1.70;;;1.70;;
26038;SDS011;13815;52.374;4.882;2023-05-10T10:54:59;1.90;;;1.90;;
26038;SDS011;13815;52.374;4.882;2023-05-10T10:57:26;1.75;;;1.70;;
26038;SDS011;13815;52.374;4.882;2023-05-10T11:05:24;1.80;;;1.80;;
26038;SDS011;13815;52.374;4.882;2023-05-10T11:08:13;6.28;;;1.80;;
26038;SDS011;13815;52.374;4.882;2023-05-10T11:10:48;2.03;;;2.00;;
26038;SDS011;13815;52.374;4.882;2023-05-10T11:13:26;8.27;;;2.85;;
26038;SDS011;13815;52.374;4.882;2023-05-10T11:15:57;2.22;;;1.98;;
26038;SDS011;13815;52.374;4.882;2023-05-10T11:18:28;1.40;;;1.40;;
26038;SDS011;13815;52.374;4.882;2023-05-10T11:20:58;1.77;;;1.77;;
26038;SDS011;13815;52.374;4.882;2023-05-10T11:23:51;1.60;;;1.60;;
26038;SDS011;13815;52.374;4.882;2023-05-10T11:26:17;0.98;;;0.98;;
26038;SDS011;13815;52.374;4.882;2023-05-10T11:31:34;1.23;;;1.23;;
26038;SDS011;13815;52.374;4.882;2023-05-10T11:33:59;1.17;;;1.17;;
26038;SDS011;13815;52.374;4.882;2023-05-10T11:36:28;1.27;;;1.27;;
26038;SDS011;13815;52.374;4.882;2023-05-10T11:38:57;4.68;;;1.40;;
26038;SDS011;13815;52.374;4.882;2023-05-10T11:41:23;1.63;;;1.63;;
26038;SDS011;13815;52.374;4.882;2023-05-10T11:43:49;9.43;;;1.60;;
26038;SDS011;13815;52.374;4.882;2023-05-10T11:46:17;1.67;;;1.67;;
26038;SDS011;13815;52.374;4.882;2023-05-10T11:48:45;1.10;;;1.10;;
26038;SDS011;13815;52.374;4.882;2023-05-10T11:51:11;3.17;;;2.15;;
26038;SDS011;13815;52.374;4.882;2023-05-10T11:53:36;1.23;;;1.23;;
26038;SDS011;13815;52.374;4.882;2023-05-10T11:56:07;1.45;;;1.45;;
26038;SDS011;13815;52.374;4.882;2023-05-10T11:58:35;1.30;;;1.30;;
26038;SDS011;13815;52.374;4.882;2023-05-10T12:01:02;4.43;;;1.90;;
26038;SDS011;13815;52.374;4.882;2023-05-10T12:03:28;7.10;;;2.45;;
26038;SDS011;13815;52.374;4.882;2023-05-10T12:05:54;1.52;;;1.52;;
26038;SDS011;13815;52.374;4.882;2023-05-10T12:08:21;3.22;;;2.60;;
26038;SDS011;13815;52.374;4.882;2023-05-10T12:10:48;1.23;;;1.23;;
26038;SDS011;13815;52.374;4.882;2023-05-10T12:13:14;2.83;;;1.40;;
26038;SDS011;13815;52.374;4.882;2023-05-10T12:15:40;2.55;;;1.38;;
26038;SDS011;13815;52.374;4.882;2023-05-10T12:18:08;1.20;;;1.20;;
26038;SDS011;13815;52.374;4.882;2023-05-10T12:20:37;1.50;;;1.50;;
26038;SDS011;13815;52.374;4.882;2023-05-10T12:23:03;2.45;;;1.92;;
26038;SDS011;13815;52.374;4.882;2023-05-10T12:25:37;2.00;;;2.00;;
26038;SDS011;13815;52.374;4.882;2023-05-10T12:28:04;1.70;;;1.70;;
26038;SDS011;13815;52.374;4.882;2023-05-10T12:33:43;1.43;;;1.43;;
26038;SDS011;13815;52.374;4.882;2023-05-10T12:36:10;1.33;;;1.33;;
26038;SDS011;13815;52.374;4.882;2023-05-10T12:38:43;1.60;;;1.50;;
26038;SDS011;13815;52.374;4.882;2023-05-10T12:41:22;1.60;;;1.50;;
26038;SDS011;13815;52.374;4.882;2023-05-10T12:44:08;3.53;;;1.70;;
26038;SDS011;13815;52.374;4.882;2023-05-10T12:46:33;7.25;;;2.30;;
26038;SDS011;13815;52.374;4.882;2023-05-10T12:48:59;2.25;;;1.80;;
26038;SDS011;13815;52.374;4.882;2023-05-10T12:51:48;1.73;;;1.73;;
26038;SDS011;13815;52.374;4.882;2023-05-10T12:54:16;2.20;;;2.20;;
26038;SDS011;13815;52.374;4.882;2023-05-10T12:56:57;6.57;;;3.17;;
26038;SDS011;13815;52.374;4.882;2023-05-10T12:59:23;3.58;;;3.33;;
26038;SDS011;13815;52.374;4.882;2023-05-10T13:01:48;2.80;;;2.80;;
26038;SDS011;13815;52.374;4.882;2023-05-10T13:04:13;5.60;;;3.03;;
26038;SDS011;13815;52.374;4.882;2023-05-10T13:06:39;2.72;;;2.67;;
26038;SDS011;13815;52.374;4.882;2023-05-10T13:09:04;2.75;;;2.75;;
26038;SDS011;13815;52.374;4.882;2023-05-10T13:11:30;6.03;;;3.35;;
26038;SDS011;13815;52.374;4.882;2023-05-10T13:13:55;3.78;;;3.30;;
26038;SDS011;13815;52.374;4.882;2023-05-10T13:16:20;2.90;;;2.90;;
26038;SDS011;13815;52.374;4.882;2023-05-10T13:18:46;4.07;;;3.70;;
26038;SDS011;13815;52.374;4.882;2023-05-10T13:21:11;4.07;;;3.70;;
26038;SDS011;13815;52.374;4.882;2023-05-10T13:23:36;3.80;;;3.70;;
26038;SDS011;13815;52.374;4.882;2023-05-10T13:26:02;4.43;;;4.03;;
26038;SDS011;13815;52.374;4.882;2023-05-10T13:28:27;4.15;;;4.05;;
26038;SDS011;13815;52.374;4.882;2023-05-10T13:30:53;4.50;;;4.40;;
26038;SDS011;13815;52.374;4.882;2023-05-10T13:33:19;4.40;;;4.30;;
26038;SDS011;13815;52.374;4.882;2023-05-10T13:35:44;4.80;;;4.40;;
26038;SDS011;13815;52.374;4.882;2023-05-10T13:38:10;3.85;;;3.75;;
26038;SDS011;13815;52.374;4.882;2023-05-10T13:40:35;4.57;;;4.47;;
26038;SDS011;13815;52.374;4.882;2023-05-10T13:43:01;5.30;;;4.93;;
26038;SDS011;13815;52.374;4.882;2023-05-10T13:45:26;6.95;;;5.30;;
26038;SDS011;13815;52.374;4.882;2023-05-10T13:47:52;5.38;;;5.28;;
26038;SDS011;13815;52.374;4.882;2023-05-10T13:50:17;5.20;;;5.10;;
26038;SDS011;13815;52.374;4.882;2023-05-10T13:52:43;6.25;;;5.28;;
26038;SDS011;13815;52.374;4.882;2023-05-10T13:55:12;4.80;;;4.70;;
26038;SDS011;13815;52.374;4.882;2023-05-10T13:57:38;4.80;;;4.70;;
26038;SDS011;13815;52.374;4.882;2023-05-10T14:00:03;6.47;;;6.00;;
26038;SDS011;13815;52.374;4.882;2023-05-10T14:02:29;7.22;;;6.55;;
26038;SDS011;13815;52.374;4.882;2023-05-10T14:04:55;5.97;;;5.63;;
26038;SDS011;13815;52.374;4.882;2023-05-10T14:07:20;5.88;;;5.78;;
26038;SDS011;13815;52.374;4.882;2023-05-10T14:09:46;6.93;;;6.40;;
26038;SDS011;13815;52.374;4.882;2023-05-10T14:12:11;5.80;;;5.70;;
26038;SDS011;13815;52.374;4.882;2023-05-10T14:14:37;6.30;;;6.10;;
26038;SDS011;13815;52.374;4.882;2023-05-10T14:17:02;6.75;;;6.25;;
26038;SDS011;13815;52.374;4.882;2023-05-10T14:19:27;6.55;;;6.10;;
26038;SDS011;13815;52.374;4.882;2023-05-10T14:21:55;6.05;;;5.88;;
26038;SDS011;13815;52.374;4.882;2023-05-10T14:24:20;5.90;;;5.80;;
26038;SDS011;13815;52.374;4.882;2023-05-10T14:26:46;6.15;;;5.95;;
26038;SDS011;13815;52.374;4.882;2023-05-10T14:29:15;6.55;;;6.35;;
26038;SDS011;13815;52.374;4.882;2023-05-10T14:31:40;7.90;;;7.40;;
26038;SDS011;13815;52.374;4.882;2023-05-10T14:34:05;7.22;;;6.80;;
26038;SDS011;13815;52.374;4.882;2023-05-10T14:36:31;6.82;;;6.63;;
26038;SDS011;13815;52.374;4.882;2023-05-10T14:38:56;6.80;;;6.60;;
26038;SDS011;13815;52.374;4.882;2023-05-10T14:41:22;7.50;;;7.30;;
26038;SDS011;13815;52.374;4.882;2023-05-10T14:43:47;8.50;;;8.20;;
26038;SDS011;13815;52.374;4.882;2023-05-10T14:46:13;8.75;;;8.45;;
26038;SDS011;13815;52.374;4.882;2023-05-10T14:48:38;10.43;;;9.15;;
26038;SDS011;13815;52.374;4.882;2023-05-10T14:51:03;8.57;;;8.27;;
26038;SDS011;13815;52.374;4.882;2023-05-10T14:53:29;8.18;;;7.97;;
26038;SDS011;13815;52.374;4.882;2023-05-10T14:55:54;8.50;;;8.20;;
26038;SDS011;13815;52.374;4.882;2023-05-10T14:58:19;9.18;;;8.60;;
26038;SDS011;13815;52.374;4.882;2023-05-10T15:00:45;8.23;;;7.85;;
26038;SDS011;13815;52.374;4.882;2023-05-10T15:03:11;7.22;;;6.70;;
26038;SDS011;13815;52.374;4.882;2023-05-10T15:05:37;7.85;;;7.40;;
26038;SDS011;13815;52.374;4.882;2023-05-10T15:08:02;8.00;;;7.50;;
26038;SDS011;13815;52.374;4.882;2023-05-10T15:10:29;8.27;;;7.72;;
26038;SDS011;13815;52.374;4.882;2023-05-10T15:12:55;7.72;;;7.20;;
26038;SDS011;13815;52.374;4.882;2023-05-10T15:15:20;7.10;;;6.80;;
26038;SDS011;13815;52.374;4.882;2023-05-10T15:17:45;5.90;;;5.80;;
26038;SDS011;13815;52.374;4.882;2023-05-10T15:20:11;6.10;;;5.95;;
26038;SDS011;13815;52.374;4.882;2023-05-10T15:22:38;6.18;;;5.97;;
26038;SDS011;13815;52.374;4.882;2023-05-10T15:25:03;7.22;;;6.68;;
26038;SDS011;13815;52.374;4.882;2023-05-10T15:27:29;6.50;;;6.30;;
26038;SDS011;13815;52.374;4.882;2023-05-10T15:29:54;6.97;;;6.50;;
26038;SDS011;13815;52.374;4.882;2023-05-10T15:32:20;7.53;;;7.00;;